sensor_id;sensor_type;location;lat;lon;timestamp;temperature;humidity
43607;DHT22;29197;44.788;10.366;2022-08-25T00:01:30;24.50;99.90
43607;DHT22;29197;44.788;10.366;2022-08-25T00:04:21;24.40;99.90
43607;DHT22;29197;44.788;10.366;2022-08-25T00:07:10;24.30;99.90
43607;DHT22;29197;44.788;10.366;2022-08-25T00:10:06;24.20;99.90
43607;DHT22;29197;44.788;10.366;2022-08-25T00:12:55;24.20;99.90
43607;DHT22;29197;44.788;10.366;2022-08-25T00:15:44;24.10;99.90
43607;DHT22;29197;44.788;10.366;2022-08-25T00:18:34;24.30;99.90
43607;DHT22;29197;44.788;10.366;2022-08-25T00:21:26;24.10;99.90
43607;DHT22;29197;44.788;10.366;2022-08-25T00:24:17;24.10;99.90
43607;DHT22;29197;44.788;10.366;2022-08-25T00:27:06;24.00;99.90
43607;DHT22;29197;44.788;10.366;2022-08-25T00:29:58;24.00;99.90
43607;DHT22;29197;44.788;10.366;2022-08-25T00:32:48;23.90;99.90
43607;DHT22;29197;44.788;10.366;2022-08-25T00:35:43;24.00;99.90
43607;DHT22;29197;44.788;10.366;2022-08-25T00:38:34;24.00;99.90
43607;DHT22;29197;44.788;10.366;2022-08-25T00:41:25;24.10;99.90
43607;DHT22;29197;44.788;10.366;2022-08-25T00:44:16;24.20;99.90
43607;DHT22;29197;44.788;10.366;2022-08-25T00:47:06;24.10;99.90
43607;DHT22;29197;44.788;10.366;2022-08-25T00:49:57;24.10;99.90
43607;DHT22;29197;44.788;10.366;2022-08-25T00:52:50;24.10;99.90
43607;DHT22;29197;44.788;10.366;2022-08-25T00:55:42;24.20;99.90
43607;DHT22;29197;44.788;10.366;2022-08-25T00:58:31;24.30;99.90
43607;DHT22;29197;44.788;10.366;2022-08-25T01:01:22;24.20;99.90
43607;DHT22;29197;44.788;10.366;2022-08-25T01:04:11;24.40;99.90
43607;DHT22;29197;44.788;10.366;2022-08-25T01:07:02;24.50;99.90
43607;DHT22;29197;44.788;10.366;2022-08-25T01:09:51;24.60;99.90
43607;DHT22;29197;44.788;10.366;2022-08-25T01:12:43;24.60;99.90
43607;DHT22;29197;44.788;10.366;2022-08-25T01:15:34;24.70;99.90
43607;DHT22;29197;44.788;10.366;2022-08-25T01:18:24;24.60;99.90
43607;DHT22;29197;44.788;10.366;2022-08-25T01:21:17;24.40;99.90
43607;DHT22;29197;44.788;10.366;2022-08-25T01:24:10;24.30;99.90
43607;DHT22;29197;44.788;10.366;2022-08-25T01:27:00;24.00;99.90
43607;DHT22;29197;44.788;10.366;2022-08-25T01:29:49;23.90;99.90
43607;DHT22;29197;44.788;10.366;2022-08-25T01:32:38;23.90;99.90
43607;DHT22;29197;44.788;10.366;2022-08-25T01:35:27;24.10;99.90
43607;DHT22;29197;44.788;10.366;2022-08-25T01:38:19;24.10;99.90
43607;DHT22;29197;44.788;10.366;2022-08-25T01:41:09;24.10;99.90
43607;DHT22;29197;44.788;10.366;2022-08-25T01:43:58;24.00;99.90
43607;DHT22;29197;44.788;10.366;2022-08-25T01:46:47;24.00;99.90
43607;DHT22;29197;44.788;10.366;2022-08-25T01:49:36;23.90;99.90
43607;DHT22;29197;44.788;10.366;2022-08-25T01:52:31;23.80;99.90
43607;DHT22;29197;44.788;10.366;2022-08-25T01:55:22;23.60;99.90
43607;DHT22;29197;44.788;10.366;2022-08-25T01:58:11;23.60;99.90
43607;DHT22;29197;44.788;10.366;2022-08-25T02:01:04;23.50;99.90
43607;DHT22;29197;44.788;10.366;2022-08-25T02:03:54;23.40;99.90
43607;DHT22;29197;44.788;10.366;2022-08-25T02:06:45;23.70;99.90
43607;DHT22;29197;44.788;10.366;2022-08-25T02:09:35;23.80;99.90
43607;DHT22;29197;44.788;10.366;2022-08-25T02:12:26;23.70;99.90
43607;DHT22;29197;44.788;10.366;2022-08-25T02:15:18;23.60;99.90
43607;DHT22;29197;44.788;10.366;2022-08-25T02:18:08;23.60;99.90
43607;DHT22;29197;44.788;10.366;2022-08-25T02:20:57;23.80;99.90
43607;DHT22;29197;44.788;10.366;2022-08-25T02:23:47;24.00;99.90
43607;DHT22;29197;44.788;10.366;2022-08-25T02:26:37;24.10;99.90
43607;DHT22;29197;44.788;10.366;2022-08-25T02:29:28;24.00;99.90
43607;DHT22;29197;44.788;10.366;2022-08-25T02:32:17;23.80;99.90
43607;DHT22;29197;44.788;10.366;2022-08-25T02:35:07;23.50;99.90
43607;DHT22;29197;44.788;10.366;2022-08-25T02:37:56;23.60;99.90
43607;DHT22;29197;44.788;10.366;2022-08-25T02:40:46;23.90;99.90
43607;DHT22;29197;44.788;10.366;2022-08-25T02:43:37;24.10;99.90
43607;DHT22;29197;44.788;10.366;2022-08-25T02:46:28;24.20;99.90
43607;DHT22;29197;44.788;10.366;2022-08-25T02:49:18;24.30;99.90
43607;DHT22;29197;44.788;10.366;2022-08-25T02:52:08;24.50;99.90
43607;DHT22;29197;44.788;10.366;2022-08-25T02:54:57;24.60;99.90
43607;DHT22;29197;44.788;10.366;2022-08-25T02:57:46;24.60;99.90
43607;DHT22;29197;44.788;10.366;2022-08-25T03:00:36;24.70;99.90
43607;DHT22;29197;44.788;10.366;2022-08-25T03:03:27;24.70;99.90
43607;DHT22;29197;44.788;10.366;2022-08-25T03:06:19;24.80;99.90
43607;DHT22;29197;44.788;10.366;2022-08-25T03:09:11;24.80;99.90
43607;DHT22;29197;44.788;10.366;2022-08-25T03:12:00;24.80;99.90
43607;DHT22;29197;44.788;10.366;2022-08-25T03:14:50;24.90;99.90
43607;DHT22;29197;44.788;10.366;2022-08-25T03:17:40;24.90;99.90
43607;DHT22;29197;44.788;10.366;2022-08-25T03:20:34;24.80;99.90
43607;DHT22;29197;44.788;10.366;2022-08-25T03:23:23;24.80;99.90
43607;DHT22;29197;44.788;10.366;2022-08-25T03:26:12;24.80;99.90
43607;DHT22;29197;44.788;10.366;2022-08-25T03:29:19;24.80;99.90
43607;DHT22;29197;44.788;10.366;2022-08-25T03:32:08;24.80;99.90
43607;DHT22;29197;44.788;10.366;2022-08-25T03:34:58;24.80;99.90
43607;DHT22;29197;44.788;10.366;2022-08-25T03:37:49;24.80;99.90
43607;DHT22;29197;44.788;10.366;2022-08-25T03:40:39;24.80;99.90
43607;DHT22;29197;44.788;10.366;2022-08-25T03:43:28;24.70;99.90
43607;DHT22;29197;44.788;10.366;2022-08-25T03:46:20;24.70;99.90
43607;DHT22;29197;44.788;10.366;2022-08-25T03:49:12;24.70;99.90
43607;DHT22;29197;44.788;10.366;2022-08-25T03:52:02;24.70;99.90
43607;DHT22;29197;44.788;10.366;2022-08-25T03:54:53;24.70;99.90
43607;DHT22;29197;44.788;10.366;2022-08-25T03:57:42;24.70;99.90
43607;DHT22;29197;44.788;10.366;2022-08-25T04:00:31;24.70;99.90
43607;DHT22;29197;44.788;10.366;2022-08-25T04:03:21;24.60;99.90
43607;DHT22;29197;44.788;10.366;2022-08-25T04:06:11;24.50;99.90
43607;DHT22;29197;44.788;10.366;2022-08-25T04:09:01;24.50;99.90
43607;DHT22;29197;44.788;10.366;2022-08-25T04:11:51;24.50;99.90
43607;DHT22;29197;44.788;10.366;2022-08-25T04:14:40;24.50;99.90
43607;DHT22;29197;44.788;10.366;2022-08-25T04:17:29;24.40;99.90
43607;DHT22;29197;44.788;10.366;2022-08-25T04:20:18;24.20;99.90
43607;DHT22;29197;44.788;10.366;2022-08-25T04:23:08;23.80;99.90
43607;DHT22;29197;44.788;10.366;2022-08-25T04:25:58;23.50;99.90
43607;DHT22;29197;44.788;10.366;2022-08-25T04:28:49;23.30;99.90
43607;DHT22;29197;44.788;10.366;2022-08-25T04:31:40;23.10;99.90
43607;DHT22;29197;44.788;10.366;2022-08-25T04:34:31;23.10;99.90
43607;DHT22;29197;44.788;10.366;2022-08-25T04:37:20;22.70;99.90
43607;DHT22;29197;44.788;10.366;2022-08-25T04:40:10;22.60;99.90
43607;DHT22;29197;44.788;10.366;2022-08-25T04:43:00;22.90;99.90
43607;DHT22;29197;44.788;10.366;2022-08-25T04:45:51;22.70;99.90
43607;DHT22;29197;44.788;10.366;2022-08-25T04:48:41;22.60;99.90
43607;DHT22;29197;44.788;10.366;2022-08-25T04:51:33;22.40;99.90
43607;DHT22;29197;44.788;10.366;2022-08-25T04:54:23;22.10;99.90
43607;DHT22;29197;44.788;10.366;2022-08-25T04:57:13;22.10;99.90
43607;DHT22;29197;44.788;10.366;2022-08-25T05:00:04;22.00;99.90
43607;DHT22;29197;44.788;10.366;2022-08-25T05:02:55;22.20;99.90
43607;DHT22;29197;44.788;10.366;2022-08-25T05:05:44;22.00;99.90
43607;DHT22;29197;44.788;10.366;2022-08-25T05:08:34;21.90;99.90
43607;DHT22;29197;44.788;10.366;2022-08-25T05:11:24;21.80;99.90
43607;DHT22;29197;44.788;10.366;2022-08-25T05:14:14;22.00;99.90
43607;DHT22;29197;44.788;10.366;2022-08-25T05:17:12;22.10;99.90
43607;DHT22;29197;44.788;10.366;2022-08-25T05:20:03;22.10;99.90
43607;DHT22;29197;44.788;10.366;2022-08-25T05:22:53;22.10;99.90
43607;DHT22;29197;44.788;10.366;2022-08-25T05:25:42;22.20;99.90
43607;DHT22;29197;44.788;10.366;2022-08-25T05:28:32;22.20;99.90
43607;DHT22;29197;44.788;10.366;2022-08-25T05:31:23;22.50;99.90
43607;DHT22;29197;44.788;10.366;2022-08-25T05:34:14;22.40;99.90
43607;DHT22;29197;44.788;10.366;2022-08-25T05:37:06;22.30;99.90
43607;DHT22;29197;44.788;10.366;2022-08-25T05:39:58;22.40;99.90
43607;DHT22;29197;44.788;10.366;2022-08-25T05:42:49;22.50;99.90
43607;DHT22;29197;44.788;10.366;2022-08-25T05:45:40;22.70;99.90
43607;DHT22;29197;44.788;10.366;2022-08-25T05:48:29;22.80;99.90
43607;DHT22;29197;44.788;10.366;2022-08-25T05:51:19;22.80;99.90
43607;DHT22;29197;44.788;10.366;2022-08-25T05:54:09;22.80;99.90
43607;DHT22;29197;44.788;10.366;2022-08-25T05:56:59;23.00;99.90
43607;DHT22;29197;44.788;10.366;2022-08-25T05:59:53;23.00;99.90
43607;DHT22;29197;44.788;10.366;2022-08-25T06:02:42;22.90;99.90
43607;DHT22;29197;44.788;10.366;2022-08-25T06:05:31;22.80;99.90
43607;DHT22;29197;44.788;10.366;2022-08-25T06:08:20;22.90;99.90
43607;DHT22;29197;44.788;10.366;2022-08-25T06:14:01;23.40;99.90
43607;DHT22;29197;44.788;10.366;2022-08-25T06:16:50;23.40;99.90
43607;DHT22;29197;44.788;10.366;2022-08-25T06:19:40;23.40;99.90
43607;DHT22;29197;44.788;10.366;2022-08-25T06:22:29;23.40;99.90
43607;DHT22;29197;44.788;10.366;2022-08-25T06:25:20;23.30;99.90
43607;DHT22;29197;44.788;10.366;2022-08-25T06:28:11;23.50;99.90
43607;DHT22;29197;44.788;10.366;2022-08-25T06:31:00;23.60;99.90
43607;DHT22;29197;44.788;10.366;2022-08-25T06:33:50;23.70;99.90
43607;DHT22;29197;44.788;10.366;2022-08-25T06:36:48;23.80;99.90
43607;DHT22;29197;44.788;10.366;2022-08-25T06:39:38;23.80;99.90
43607;DHT22;29197;44.788;10.366;2022-08-25T06:42:28;23.80;99.90
43607;DHT22;29197;44.788;10.366;2022-08-25T06:45:19;23.90;99.90
43607;DHT22;29197;44.788;10.366;2022-08-25T06:48:09;24.10;99.90
43607;DHT22;29197;44.788;10.366;2022-08-25T06:50:58;24.10;99.90
43607;DHT22;29197;44.788;10.366;2022-08-25T06:53:48;24.30;99.90
43607;DHT22;29197;44.788;10.366;2022-08-25T06:56:39;24.40;99.90
43607;DHT22;29197;44.788;10.366;2022-08-25T06:59:28;24.60;99.90
43607;DHT22;29197;44.788;10.366;2022-08-25T07:02:20;24.60;99.90
43607;DHT22;29197;44.788;10.366;2022-08-25T07:05:10;24.90;99.90
43607;DHT22;29197;44.788;10.366;2022-08-25T07:08:12;25.10;99.90
43607;DHT22;29197;44.788;10.366;2022-08-25T07:11:04;25.30;99.90
43607;DHT22;29197;44.788;10.366;2022-08-25T07:19:47;25.80;99.90
43607;DHT22;29197;44.788;10.366;2022-08-25T07:28:23;26.10;99.90
43607;DHT22;29197;44.788;10.366;2022-08-25T07:31:12;26.10;99.90
43607;DHT22;29197;44.788;10.366;2022-08-25T08:00:30;26.80;99.90
43607;DHT22;29197;44.788;10.366;2022-08-25T08:06:32;28.70;99.90
43607;DHT22;29197;44.788;10.366;2022-08-25T08:12:13;27.30;99.90
43607;DHT22;29197;44.788;10.366;2022-08-25T08:15:05;27.30;99.90
43607;DHT22;29197;44.788;10.366;2022-08-25T08:21:47;27.40;99.90
43607;DHT22;29197;44.788;10.366;2022-08-25T08:24:40;27.50;99.90
43607;DHT22;29197;44.788;10.366;2022-08-25T08:33:24;27.60;99.90
43607;DHT22;29197;44.788;10.366;2022-08-25T08:45:19;27.80;99.90
43607;DHT22;29197;44.788;10.366;2022-08-25T08:48:21;27.80;99.90
43607;DHT22;29197;44.788;10.366;2022-08-25T08:51:18;27.80;99.90
43607;DHT22;29197;44.788;10.366;2022-08-25T08:54:13;27.80;99.90
43607;DHT22;29197;44.788;10.366;2022-08-25T08:57:10;28.00;99.90
43607;DHT22;29197;44.788;10.366;2022-08-25T09:00:05;28.00;99.90
43607;DHT22;29197;44.788;10.366;2022-08-25T09:03:01;28.10;99.90
43607;DHT22;29197;44.788;10.366;2022-08-25T09:05:55;28.20;99.90
43607;DHT22;29197;44.788;10.366;2022-08-25T09:08:45;28.30;99.90
43607;DHT22;29197;44.788;10.366;2022-08-25T09:11:47;28.30;99.90
43607;DHT22;29197;44.788;10.366;2022-08-25T09:14:53;28.30;99.90
43607;DHT22;29197;44.788;10.366;2022-08-25T09:18:01;28.40;99.90
43607;DHT22;29197;44.788;10.366;2022-08-25T09:21:05;28.50;99.90
43607;DHT22;29197;44.788;10.366;2022-08-25T09:24:11;28.60;99.90
43607;DHT22;29197;44.788;10.366;2022-08-25T09:30:43;28.20;99.90
43607;DHT22;29197;44.788;10.366;2022-08-25T09:33:35;27.90;99.90
43607;DHT22;29197;44.788;10.366;2022-08-25T09:36:27;28.10;99.90
43607;DHT22;29197;44.788;10.366;2022-08-25T09:39:23;28.40;99.90
43607;DHT22;29197;44.788;10.366;2022-08-25T09:48:00;28.80;99.90
43607;DHT22;29197;44.788;10.366;2022-08-25T09:50:57;28.80;99.90
43607;DHT22;29197;44.788;10.366;2022-08-25T09:53:53;28.90;99.90
43607;DHT22;29197;44.788;10.366;2022-08-25T09:56:48;29.00;99.90
43607;DHT22;29197;44.788;10.366;2022-08-25T09:59:37;28.90;99.90
43607;DHT22;29197;44.788;10.366;2022-08-25T10:02:59;29.10;99.90
43607;DHT22;29197;44.788;10.366;2022-08-25T10:06:04;29.20;99.90
43607;DHT22;29197;44.788;10.366;2022-08-25T10:09:02;29.20;99.90
43607;DHT22;29197;44.788;10.366;2022-08-25T10:11:53;29.30;99.90
43607;DHT22;29197;44.788;10.366;2022-08-25T10:14:46;29.30;99.90
43607;DHT22;29197;44.788;10.366;2022-08-25T10:17:40;29.30;99.90
43607;DHT22;29197;44.788;10.366;2022-08-25T10:26:25;29.70;99.90
43607;DHT22;29197;44.788;10.366;2022-08-25T10:29:45;29.90;99.90
43607;DHT22;29197;44.788;10.366;2022-08-25T10:32:56;29.90;99.90
43607;DHT22;29197;44.788;10.366;2022-08-25T11:13:00;31.20;99.90
43607;DHT22;29197;44.788;10.366;2022-08-25T11:16:00;31.40;99.90
43607;DHT22;29197;44.788;10.366;2022-08-25T11:19:10;31.50;99.90
43607;DHT22;29197;44.788;10.366;2022-08-25T11:22:06;31.70;99.90
43607;DHT22;29197;44.788;10.366;2022-08-25T11:25:06;31.90;99.90
43607;DHT22;29197;44.788;10.366;2022-08-25T11:28:07;32.00;99.90
43607;DHT22;29197;44.788;10.366;2022-08-25T11:30:59;32.10;99.90
43607;DHT22;29197;44.788;10.366;2022-08-25T11:33:52;32.10;99.90
43607;DHT22;29197;44.788;10.366;2022-08-25T11:36:49;32.20;99.90
43607;DHT22;29197;44.788;10.366;2022-08-25T11:43:12;32.50;99.90
43607;DHT22;29197;44.788;10.366;2022-08-25T11:46:21;32.80;99.90
43607;DHT22;29197;44.788;10.366;2022-08-25T11:52:45;33.00;99.90
43607;DHT22;29197;44.788;10.366;2022-08-25T11:58:56;33.70;99.50
43607;DHT22;29197;44.788;10.366;2022-08-25T12:01:59;33.40;99.90
43607;DHT22;29197;44.788;10.366;2022-08-25T12:04:49;33.40;99.90
43607;DHT22;29197;44.788;10.366;2022-08-25T12:08:00;33.70;99.90
43607;DHT22;29197;44.788;10.366;2022-08-25T12:11:06;34.00;99.90
43607;DHT22;29197;44.788;10.366;2022-08-25T12:14:15;34.30;99.90
43607;DHT22;29197;44.788;10.366;2022-08-25T12:17:17;34.60;99.90
43607;DHT22;29197;44.788;10.366;2022-08-25T12:20:08;34.90;99.90
43607;DHT22;29197;44.788;10.366;2022-08-25T12:22:57;35.00;99.20
43607;DHT22;29197;44.788;10.366;2022-08-25T12:25:52;35.20;98.50
43607;DHT22;29197;44.788;10.366;2022-08-25T12:29:00;35.20;98.20
43607;DHT22;29197;44.788;10.366;2022-08-25T12:32:16;35.30;97.90
43607;DHT22;29197;44.788;10.366;2022-08-25T12:35:26;35.40;97.80
43607;DHT22;29197;44.788;10.366;2022-08-25T12:38:27;35.60;96.90
43607;DHT22;29197;44.788;10.366;2022-08-25T12:41:23;35.70;96.50
43607;DHT22;29197;44.788;10.366;2022-08-25T12:44:34;35.80;99.90
43607;DHT22;29197;44.788;10.366;2022-08-25T12:47:29;35.90;96.10
43607;DHT22;29197;44.788;10.366;2022-08-25T12:50:37;36.00;95.50
43607;DHT22;29197;44.788;10.366;2022-08-25T12:53:35;36.00;99.90
43607;DHT22;29197;44.788;10.366;2022-08-25T12:56:30;36.10;95.10
43607;DHT22;29197;44.788;10.366;2022-08-25T12:59:32;36.10;95.40
43607;DHT22;29197;44.788;10.366;2022-08-25T13:02:49;36.20;95.30
43607;DHT22;29197;44.788;10.366;2022-08-25T13:09:23;36.30;95.30
43607;DHT22;29197;44.788;10.366;2022-08-25T13:12:22;36.20;94.30
43607;DHT22;29197;44.788;10.366;2022-08-25T13:15:25;36.20;94.20
43607;DHT22;29197;44.788;10.366;2022-08-25T13:18:24;36.20;94.30
43607;DHT22;29197;44.788;10.366;2022-08-25T13:21:16;36.30;93.50
43607;DHT22;29197;44.788;10.366;2022-08-25T13:24:10;36.20;93.90
43607;DHT22;29197;44.788;10.366;2022-08-25T13:27:06;36.20;94.10
43607;DHT22;29197;44.788;10.366;2022-08-25T13:29:58;36.30;94.20
43607;DHT22;29197;44.788;10.366;2022-08-25T13:32:50;36.30;93.50
43607;DHT22;29197;44.788;10.366;2022-08-25T13:35:47;36.30;93.70
43607;DHT22;29197;44.788;10.366;2022-08-25T13:38:38;36.40;93.60
43607;DHT22;29197;44.788;10.366;2022-08-25T13:41:32;36.10;93.20
43607;DHT22;29197;44.788;10.366;2022-08-25T13:44:25;35.90;93.90
43607;DHT22;29197;44.788;10.366;2022-08-25T13:47:30;36.00;93.70
43607;DHT22;29197;44.788;10.366;2022-08-25T13:50:29;36.10;93.40
43607;DHT22;29197;44.788;10.366;2022-08-25T13:53:24;36.10;93.60
43607;DHT22;29197;44.788;10.366;2022-08-25T13:56:28;36.20;93.30
43607;DHT22;29197;44.788;10.366;2022-08-25T13:59:31;36.10;92.60
43607;DHT22;29197;44.788;10.366;2022-08-25T14:02:39;35.80;92.70
43607;DHT22;29197;44.788;10.366;2022-08-25T14:05:36;35.80;92.00
43607;DHT22;29197;44.788;10.366;2022-08-25T14:08:30;35.90;92.20
43607;DHT22;29197;44.788;10.366;2022-08-25T14:11:31;35.70;93.20
43607;DHT22;29197;44.788;10.366;2022-08-25T14:14:31;35.80;93.10
43607;DHT22;29197;44.788;10.366;2022-08-25T14:17:21;35.90;93.30
43607;DHT22;29197;44.788;10.366;2022-08-25T14:20:28;35.90;92.70
43607;DHT22;29197;44.788;10.366;2022-08-25T14:23:20;36.00;92.80
43607;DHT22;29197;44.788;10.366;2022-08-25T14:26:12;36.00;93.10
43607;DHT22;29197;44.788;10.366;2022-08-25T14:29:02;35.90;93.20
43607;DHT22;29197;44.788;10.366;2022-08-25T14:31:54;35.90;93.30
43607;DHT22;29197;44.788;10.366;2022-08-25T14:34:45;35.90;93.50
43607;DHT22;29197;44.788;10.366;2022-08-25T14:37:35;35.90;93.40
43607;DHT22;29197;44.788;10.366;2022-08-25T14:40:24;35.90;93.30
43607;DHT22;29197;44.788;10.366;2022-08-25T14:43:22;35.80;93.30
43607;DHT22;29197;44.788;10.366;2022-08-25T14:46:20;35.90;93.20
43607;DHT22;29197;44.788;10.366;2022-08-25T14:49:16;35.60;92.80
43607;DHT22;29197;44.788;10.366;2022-08-25T14:52:18;35.40;94.80
43607;DHT22;29197;44.788;10.366;2022-08-25T14:55:10;35.50;93.40
43607;DHT22;29197;44.788;10.366;2022-08-25T14:58:14;35.50;93.20
43607;DHT22;29197;44.788;10.366;2022-08-25T15:01:15;35.50;93.10
43607;DHT22;29197;44.788;10.366;2022-08-25T15:04:17;35.50;93.40
43607;DHT22;29197;44.788;10.366;2022-08-25T15:07:07;35.50;93.00
43607;DHT22;29197;44.788;10.366;2022-08-25T15:10:10;35.40;92.80
43607;DHT22;29197;44.788;10.366;2022-08-25T15:13:00;35.20;93.00
43607;DHT22;29197;44.788;10.366;2022-08-25T15:15:50;35.10;93.50
43607;DHT22;29197;44.788;10.366;2022-08-25T15:18:41;35.10;93.50
43607;DHT22;29197;44.788;10.366;2022-08-25T15:21:31;35.00;93.30
43607;DHT22;29197;44.788;10.366;2022-08-25T15:24:22;34.90;93.60
43607;DHT22;29197;44.788;10.366;2022-08-25T15:27:12;34.90;93.90
43607;DHT22;29197;44.788;10.366;2022-08-25T15:30:04;34.80;93.90
43607;DHT22;29197;44.788;10.366;2022-08-25T15:32:59;34.80;93.70
43607;DHT22;29197;44.788;10.366;2022-08-25T15:35:50;34.60;94.00
43607;DHT22;29197;44.788;10.366;2022-08-25T15:38:41;34.40;94.20
43607;DHT22;29197;44.788;10.366;2022-08-25T15:41:31;34.10;94.40
43607;DHT22;29197;44.788;10.366;2022-08-25T15:44:22;34.00;94.70
43607;DHT22;29197;44.788;10.366;2022-08-25T15:47:16;34.00;95.20
43607;DHT22;29197;44.788;10.366;2022-08-25T15:50:09;34.00;95.10
43607;DHT22;29197;44.788;10.366;2022-08-25T15:53:03;34.00;95.10
43607;DHT22;29197;44.788;10.366;2022-08-25T15:55:56;34.00;95.50
43607;DHT22;29197;44.788;10.366;2022-08-25T15:58:53;34.00;95.40
43607;DHT22;29197;44.788;10.366;2022-08-25T16:01:43;33.90;95.30
43607;DHT22;29197;44.788;10.366;2022-08-25T16:04:33;33.80;95.50
43607;DHT22;29197;44.788;10.366;2022-08-25T16:07:23;33.70;95.70
43607;DHT22;29197;44.788;10.366;2022-08-25T16:13:08;33.50;99.90
43607;DHT22;29197;44.788;10.366;2022-08-25T16:15:57;33.50;96.10
43607;DHT22;29197;44.788;10.366;2022-08-25T16:18:48;33.40;95.80
43607;DHT22;29197;44.788;10.366;2022-08-25T16:21:37;33.30;96.20
43607;DHT22;29197;44.788;10.366;2022-08-25T16:24:33;33.30;96.40
43607;DHT22;29197;44.788;10.366;2022-08-25T16:27:26;33.20;96.40
43607;DHT22;29197;44.788;10.366;2022-08-25T16:30:25;33.10;96.50
43607;DHT22;29197;44.788;10.366;2022-08-25T16:33:15;33.10;96.80
43607;DHT22;29197;44.788;10.366;2022-08-25T16:36:08;33.00;96.50
43607;DHT22;29197;44.788;10.366;2022-08-25T16:38:58;32.90;96.60
43607;DHT22;29197;44.788;10.366;2022-08-25T16:41:49;32.80;96.50
43607;DHT22;29197;44.788;10.366;2022-08-25T16:44:40;32.70;96.70
43607;DHT22;29197;44.788;10.366;2022-08-25T16:47:30;32.70;96.80
43607;DHT22;29197;44.788;10.366;2022-08-25T16:50:24;32.60;96.90
43607;DHT22;29197;44.788;10.366;2022-08-25T16:53:21;32.50;96.60
43607;DHT22;29197;44.788;10.366;2022-08-25T16:56:32;32.40;96.80
43607;DHT22;29197;44.788;10.366;2022-08-25T16:59:24;32.30;97.10
43607;DHT22;29197;44.788;10.366;2022-08-25T17:02:15;32.10;97.40
43607;DHT22;29197;44.788;10.366;2022-08-25T17:05:09;32.00;97.30
43607;DHT22;29197;44.788;10.366;2022-08-25T17:08:00;31.90;97.50
43607;DHT22;29197;44.788;10.366;2022-08-25T17:11:08;31.80;97.90
43607;DHT22;29197;44.788;10.366;2022-08-25T17:14:00;31.70;97.70
43607;DHT22;29197;44.788;10.366;2022-08-25T17:16:57;31.60;98.00
43607;DHT22;29197;44.788;10.366;2022-08-25T17:19:48;31.50;98.30
43607;DHT22;29197;44.788;10.366;2022-08-25T17:22:41;31.40;98.60
43607;DHT22;29197;44.788;10.366;2022-08-25T17:25:33;31.40;98.80
43607;DHT22;29197;44.788;10.366;2022-08-25T17:28:27;31.30;99.00
43607;DHT22;29197;44.788;10.366;2022-08-25T17:31:17;31.30;99.30
43607;DHT22;29197;44.788;10.366;2022-08-25T17:34:06;31.20;99.50
43607;DHT22;29197;44.788;10.366;2022-08-25T17:36:58;31.20;99.70
43607;DHT22;29197;44.788;10.366;2022-08-25T17:39:49;31.10;99.80
43607;DHT22;29197;44.788;10.366;2022-08-25T17:42:48;31.00;99.90
43607;DHT22;29197;44.788;10.366;2022-08-25T17:45:39;31.00;99.90
43607;DHT22;29197;44.788;10.366;2022-08-25T17:48:29;30.90;99.90
43607;DHT22;29197;44.788;10.366;2022-08-25T17:51:20;30.90;99.90
43607;DHT22;29197;44.788;10.366;2022-08-25T17:54:11;30.80;99.90
43607;DHT22;29197;44.788;10.366;2022-08-25T17:57:02;30.80;99.90
43607;DHT22;29197;44.788;10.366;2022-08-25T17:59:51;30.70;99.90
43607;DHT22;29197;44.788;10.366;2022-08-25T18:02:40;30.60;99.90
43607;DHT22;29197;44.788;10.366;2022-08-25T18:05:31;30.60;99.90
43607;DHT22;29197;44.788;10.366;2022-08-25T18:11:22;30.50;99.90
43607;DHT22;29197;44.788;10.366;2022-08-25T18:17:03;30.40;99.90
43607;DHT22;29197;44.788;10.366;2022-08-25T18:19:53;30.30;99.90
43607;DHT22;29197;44.788;10.366;2022-08-25T18:22:43;30.30;99.90
43607;DHT22;29197;44.788;10.366;2022-08-25T18:25:32;30.30;99.90
43607;DHT22;29197;44.788;10.366;2022-08-25T18:28:24;30.30;99.90
43607;DHT22;29197;44.788;10.366;2022-08-25T18:31:14;30.20;99.90
43607;DHT22;29197;44.788;10.366;2022-08-25T18:34:06;30.10;99.90
43607;DHT22;29197;44.788;10.366;2022-08-25T18:36:57;30.10;99.90
43607;DHT22;29197;44.788;10.366;2022-08-25T18:40:07;30.00;99.90
43607;DHT22;29197;44.788;10.366;2022-08-25T18:43:12;30.00;99.90
43607;DHT22;29197;44.788;10.366;2022-08-25T18:46:07;30.00;99.90
43607;DHT22;29197;44.788;10.366;2022-08-25T18:48:57;29.90;99.90
43607;DHT22;29197;44.788;10.366;2022-08-25T18:51:47;29.90;99.90
43607;DHT22;29197;44.788;10.366;2022-08-25T18:54:37;29.90;99.90
43607;DHT22;29197;44.788;10.366;2022-08-25T18:57:26;29.90;99.90
43607;DHT22;29197;44.788;10.366;2022-08-25T19:00:18;29.90;99.90
43607;DHT22;29197;44.788;10.366;2022-08-25T19:03:10;29.80;99.90
43607;DHT22;29197;44.788;10.366;2022-08-25T19:06:00;29.80;99.90
43607;DHT22;29197;44.788;10.366;2022-08-25T19:08:49;29.70;99.90
43607;DHT22;29197;44.788;10.366;2022-08-25T19:11:38;29.70;99.90
43607;DHT22;29197;44.788;10.366;2022-08-25T19:14:29;29.70;99.90
43607;DHT22;29197;44.788;10.366;2022-08-25T19:17:18;29.70;99.90
43607;DHT22;29197;44.788;10.366;2022-08-25T19:20:12;29.60;99.90
43607;DHT22;29197;44.788;10.366;2022-08-25T19:23:02;29.60;99.90
43607;DHT22;29197;44.788;10.366;2022-08-25T19:25:54;29.60;99.90
43607;DHT22;29197;44.788;10.366;2022-08-25T19:28:44;29.60;99.90
43607;DHT22;29197;44.788;10.366;2022-08-25T19:31:36;29.50;99.90
43607;DHT22;29197;44.788;10.366;2022-08-25T19:34:27;29.50;99.90
43607;DHT22;29197;44.788;10.366;2022-08-25T19:37:21;29.50;99.90
43607;DHT22;29197;44.788;10.366;2022-08-25T19:40:12;29.40;99.90
43607;DHT22;29197;44.788;10.366;2022-08-25T19:43:04;29.40;99.90
43607;DHT22;29197;44.788;10.366;2022-08-25T19:45:55;29.40;99.90
43607;DHT22;29197;44.788;10.366;2022-08-25T19:48:44;29.40;99.90
43607;DHT22;29197;44.788;10.366;2022-08-25T19:51:33;29.30;99.90
43607;DHT22;29197;44.788;10.366;2022-08-25T19:54:26;29.30;99.90
43607;DHT22;29197;44.788;10.366;2022-08-25T19:57:17;29.30;99.90
43607;DHT22;29197;44.788;10.366;2022-08-25T20:00:30;29.20;99.90
43607;DHT22;29197;44.788;10.366;2022-08-25T20:03:19;29.00;99.90
43607;DHT22;29197;44.788;10.366;2022-08-25T20:06:08;28.90;99.90
43607;DHT22;29197;44.788;10.366;2022-08-25T20:09:02;29.00;99.90
43607;DHT22;29197;44.788;10.366;2022-08-25T20:11:53;28.90;99.90
43607;DHT22;29197;44.788;10.366;2022-08-25T20:14:43;28.90;99.90
43607;DHT22;29197;44.788;10.366;2022-08-25T20:17:33;28.90;99.90